createdAt,value
2022-12-18T00:00:43.720Z,-4.43
2022-12-18T00:05:52.125Z,-4.53
2022-12-18T00:10:59.841Z,-4.53
2022-12-18T00:16:11.409Z,-4.69
2022-12-18T00:21:17.407Z,-4.71
2022-12-18T00:26:26.264Z,-4.82
2022-12-18T00:31:38.807Z,-4.57
2022-12-18T00:36:44.953Z,-4.15
2022-12-18T00:42:02.945Z,-4.21
2022-12-18T00:47:10.685Z,-4.72
2022-12-18T00:52:15.671Z,-5.01
2022-12-18T00:57:20.610Z,-4.96
2022-12-18T01:02:28.568Z,-5.18
2022-12-18T01:07:34.010Z,-5.50
2022-12-18T01:12:40.796Z,-5.75
2022-12-18T01:17:48.799Z,-5.56
2022-12-18T01:22:53.699Z,-5.51
2022-12-18T01:27:58.967Z,-5.68
2022-12-18T01:33:08.130Z,-5.62
2022-12-18T01:38:14.142Z,-5.16
2022-12-18T01:43:19.003Z,-5.27
2022-12-18T01:48:27.403Z,-5.25
2022-12-18T01:53:32.513Z,-5.36
2022-12-18T01:58:44.684Z,-4.92
2022-12-18T02:03:52.472Z,-5.52
2022-12-18T02:09:06.456Z,-5.68
2022-12-18T02:14:22.167Z,-5.88
2022-12-18T02:19:56.983Z,-5.81
2022-12-18T02:25:16.326Z,-6.09
2022-12-18T02:30:25.351Z,-6.21
2022-12-18T02:35:33.360Z,-6.17
2022-12-18T02:40:42.138Z,-6.20
2022-12-18T02:45:56.203Z,-6.17
2022-12-18T02:51:07.407Z,-6.31
2022-12-18T02:56:18.275Z,-6.26
2022-12-18T03:01:33.322Z,-6.24
2022-12-18T03:06:44.891Z,-6.33
2022-12-18T03:12:10.404Z,-6.24
2022-12-18T03:17:24.450Z,-6.20
2022-12-18T03:22:33.117Z,-6.04
2022-12-18T03:27:44.892Z,-6.04
2022-12-18T03:33:00.714Z,-5.96
2022-12-18T03:38:07.679Z,-5.99
2022-12-18T03:43:24.344Z,-5.93
2022-12-18T03:48:36.544Z,-6.17
2022-12-18T03:53:55.410Z,-6.08
2022-12-18T03:59:05.122Z,-6.20
2022-12-18T04:04:15.895Z,-6.05
2022-12-18T04:09:23.152Z,-5.82
2022-12-18T04:14:29.404Z,-5.90
2022-12-18T04:19:38.422Z,-6.09
2022-12-18T04:24:43.792Z,-6.04
2022-12-18T04:30:07.885Z,-6.14
2022-12-18T04:35:16.069Z,-6.06
2022-12-18T04:40:22.513Z,-6.05
2022-12-18T04:45:28.318Z,-6.12
2022-12-18T04:50:36.329Z,-6.09
2022-12-18T04:55:41.191Z,-6.08
2022-12-18T05:00:46.061Z,-6.12
2022-12-18T05:05:56.123Z,-6.19
2022-12-18T05:11:05.750Z,-6.28
2022-12-18T05:16:11.585Z,-6.36
2022-12-18T05:21:19.197Z,-6.41
2022-12-18T05:26:24.141Z,-6.48
2022-12-18T05:31:29.116Z,-6.52
2022-12-18T05:36:36.699Z,-6.51
2022-12-18T05:41:41.602Z,-6.64
2022-12-18T05:46:46.664Z,-6.69
2022-12-18T05:51:54.568Z,-6.70
2022-12-18T05:56:59.488Z,-6.80
2022-12-18T06:02:04.524Z,-6.79
2022-12-18T06:07:12.122Z,-6.70
2022-12-18T06:12:17.397Z,-6.70
2022-12-18T06:17:22.423Z,-6.86
2022-12-18T06:22:30.138Z,-6.68
2022-12-18T06:27:35.058Z,-6.77
2022-12-18T06:32:40.425Z,-6.83
2022-12-18T06:37:48.191Z,-6.86
2022-12-18T06:42:53.170Z,-7.04
2022-12-18T06:47:58.549Z,-6.92
2022-12-18T06:53:07.965Z,-6.80
2022-12-18T06:58:13.001Z,-7.01
2022-12-18T07:03:17.952Z,-6.75
2022-12-18T07:08:25.494Z,-6.81
2022-12-18T07:13:30.775Z,-6.87
2022-12-18T07:18:35.718Z,-6.67
2022-12-18T07:23:44.018Z,-6.50
2022-12-18T07:28:52.642Z,-6.41
2022-12-18T07:33:57.875Z,-6.41
2022-12-18T07:39:05.506Z,-6.32
2022-12-18T07:44:12.868Z,-6.24
2022-12-18T07:49:17.736Z,-6.08
2022-12-18T07:54:25.654Z,-5.98
2022-12-18T07:59:30.554Z,-5.94
2022-12-18T08:04:35.684Z,-5.88
2022-12-18T08:09:43.293Z,-5.85
2022-12-18T08:14:48.166Z,-5.79
2022-12-18T08:19:53.506Z,-5.67
2022-12-18T08:25:02.352Z,-5.62
2022-12-18T08:30:08.447Z,-5.48
2022-12-18T08:35:14.801Z,-5.41
2022-12-18T08:40:25.213Z,-5.13
2022-12-18T08:45:30.269Z,-5.23
2022-12-18T08:50:35.162Z,-5.03
2022-12-18T08:55:48.570Z,-5.01
2022-12-18T09:00:55.679Z,-4.84
2022-12-18T09:06:00.731Z,-4.82
2022-12-18T09:11:08.588Z,-4.67
2022-12-18T09:16:13.538Z,-4.65
2022-12-18T09:21:20.443Z,-4.50
2022-12-18T09:26:29.485Z,-4.40
2022-12-18T09:31:36.036Z,-4.39
2022-12-18T09:36:41.591Z,-4.29
2022-12-18T09:41:58.014Z,-4.24
2022-12-18T09:47:14.662Z,-4.25
2022-12-18T09:52:25.462Z,-4.10
2022-12-18T09:57:36.113Z,-4.08
2022-12-18T10:02:41.306Z,-3.96
2022-12-18T10:07:57.221Z,-4.08
2022-12-18T10:13:13.989Z,-4.09
2022-12-18T10:18:29.535Z,-4.12
2022-12-18T10:23:48.558Z,-4.04
2022-12-18T10:29:02.207Z,-3.83
2022-12-18T10:34:13.927Z,-3.88
2022-12-18T10:39:24.721Z,-3.92
2022-12-18T10:44:32.373Z,-3.89
2022-12-18T10:49:39.683Z,-3.78
2022-12-18T10:54:50.420Z,-3.66
2022-12-18T11:00:00.183Z,-3.69
2022-12-18T11:05:06.562Z,-3.76
2022-12-18T11:10:20.559Z,-3.64
2022-12-18T11:15:33.271Z,-3.63
2022-12-18T11:20:40.103Z,-3.71
2022-12-18T11:25:56.267Z,-3.56
2022-12-18T11:31:23.421Z,-3.32
2022-12-18T11:36:34.818Z,-3.23
2022-12-18T11:42:01.616Z,-2.98
2022-12-18T11:47:19.155Z,-2.74
2022-12-18T11:52:28.606Z,-3.05
2022-12-18T11:57:42.189Z,-2.68
2022-12-18T12:03:11.741Z,-2.61
2022-12-18T12:08:23.215Z,-2.69
2022-12-18T12:13:40.448Z,-2.86
2022-12-18T12:19:04.104Z,-2.35
2022-12-18T12:24:23.887Z,-2.63
2022-12-18T12:29:42.169Z,-2.45
2022-12-18T12:35:09.441Z,-1.75
2022-12-18T12:40:51.375Z,-2.00
2022-12-18T12:45:54.836Z,-1.82
2022-12-18T12:51:04.556Z,-1.90
2022-12-18T12:56:12.512Z,-2.47
2022-12-18T13:01:29.605Z,-2.77
2022-12-18T13:06:47.504Z,-2.78
2022-12-18T13:12:05.663Z,-2.63
2022-12-18T13:17:31.984Z,-3.05
2022-12-18T13:22:47.268Z,-3.44
2022-12-18T13:28:04.394Z,-3.79
2022-12-18T13:34:25.629Z,-4.01
2022-12-18T13:39:38.608Z,-3.99
2022-12-18T13:44:45.397Z,-4.19
2022-12-18T13:49:50.944Z,-4.15
2022-12-18T13:55:01.942Z,-4.17
2022-12-18T14:00:29.633Z,-4.00
2022-12-18T14:05:39.958Z,-3.90
2022-12-18T14:10:54.793Z,-4.15
2022-12-18T14:16:04.454Z,-4.24
2022-12-18T14:21:19.552Z,-4.43
2022-12-18T14:26:31.857Z,-4.57
2022-12-18T14:31:36.867Z,-4.74
2022-12-18T14:36:41.847Z,-4.78
2022-12-18T14:41:50.667Z,-4.87
2022-12-18T14:46:56.937Z,-4.95
2022-12-18T14:52:06.940Z,-4.84
2022-12-18T14:57:26.372Z,-4.79
2022-12-18T15:02:33.119Z,-4.80
2022-12-18T15:07:45.823Z,-4.76
2022-12-18T15:13:12.807Z,-4.80
2022-12-18T15:18:21.478Z,-4.79
2022-12-18T15:23:28.793Z,-4.95
2022-12-18T15:28:40.764Z,-5.05
2022-12-18T15:33:47.572Z,-5.09
2022-12-18T15:38:53.667Z,-5.09
2022-12-18T15:44:01.480Z,-4.89
2022-12-18T15:49:06.586Z,-5.14
2022-12-18T15:54:16.766Z,-5.11
2022-12-18T15:59:25.119Z,-5.13
2022-12-18T16:04:30.059Z,-5.23
2022-12-18T16:09:34.956Z,-4.97
2022-12-18T16:14:43.492Z,-5.24
2022-12-18T16:19:49.095Z,-5.19
2022-12-18T16:24:55.337Z,-5.32
2022-12-18T16:30:03.363Z,-5.25
2022-12-18T16:35:09.691Z,-5.23
2022-12-18T16:40:17.188Z,-5.13
2022-12-18T16:45:27.554Z,-5.26
2022-12-18T16:50:35.801Z,-5.19
2022-12-18T16:55:40.685Z,-5.15
2022-12-18T17:00:48.319Z,-5.23
2022-12-18T17:05:54.425Z,-5.16
2022-12-18T17:11:00.413Z,-5.13
2022-12-18T17:16:10.792Z,-5.09
2022-12-18T17:21:16.236Z,-5.20
2022-12-18T17:26:23.575Z,-5.24
2022-12-18T17:31:33.743Z,-5.27
2022-12-18T17:36:39.672Z,-5.23
2022-12-18T17:41:46.813Z,-5.33
2022-12-18T17:46:55.685Z,-5.30
2022-12-18T17:52:00.997Z,-5.30
2022-12-18T17:57:06.873Z,-5.28
2022-12-18T18:02:18.858Z,-5.09
2022-12-18T18:07:26.877Z,-5.03
2022-12-18T18:12:45.634Z,-5.07
2022-12-18T18:17:54.068Z,-5.03
2022-12-18T18:22:59.433Z,-5.01
2022-12-18T18:28:05.441Z,-4.89
2022-12-18T18:33:13.012Z,-4.93
2022-12-18T18:38:20.398Z,-5.10
2022-12-18T18:43:25.846Z,-5.12
2022-12-18T18:48:36.605Z,-4.95
2022-12-18T18:53:44.833Z,-4.90
2022-12-18T18:58:50.300Z,-4.95
2022-12-18T19:04:01.697Z,-4.85
2022-12-18T19:09:07.576Z,-4.97
2022-12-18T19:14:15.428Z,-5.04
2022-12-18T19:19:23.786Z,-4.99
2022-12-18T19:24:29.095Z,-5.08
2022-12-18T19:29:34.140Z,-5.03
2022-12-18T19:34:44.043Z,-4.92
2022-12-18T19:39:55.197Z,-5.01
2022-12-18T19:45:04.128Z,-4.97
2022-12-18T19:50:14.022Z,-5.04
2022-12-18T19:55:28.785Z,-5.03
2022-12-18T20:00:36.601Z,-5.03
2022-12-18T20:05:44.763Z,-5.02
2022-12-18T20:10:50.723Z,-4.99
2022-12-18T20:15:57.444Z,-4.93
2022-12-18T20:21:08.308Z,-4.95
2022-12-18T20:26:18.514Z,-4.85
2022-12-18T20:31:29.030Z,-4.81
2022-12-18T20:36:38.819Z,-4.72
2022-12-18T20:41:46.043Z,-4.62
2022-12-18T20:46:51.771Z,-4.46
2022-12-18T20:52:03.278Z,-4.39
2022-12-18T20:57:08.793Z,-4.36
2022-12-18T21:02:16.686Z,-4.33
2022-12-18T21:07:27.731Z,-4.34
2022-12-18T21:13:01.593Z,-4.44
2022-12-18T21:18:09.627Z,-4.46
2022-12-18T21:23:17.781Z,-4.47
2022-12-18T21:28:22.876Z,-4.43
2022-12-18T21:33:28.893Z,-4.30
2022-12-18T21:38:36.691Z,-4.33
2022-12-18T21:43:54.008Z,-4.15
2022-12-18T21:48:59.034Z,-4.09
2022-12-18T21:54:07.230Z,-4.15
2022-12-18T21:59:12.861Z,-4.22
2022-12-18T22:04:18.731Z,-4.27
2022-12-18T22:09:28.118Z,-4.33
2022-12-18T22:14:33.287Z,-4.29
2022-12-18T22:19:42.804Z,-4.24
2022-12-18T22:24:50.870Z,-4.11
2022-12-18T22:30:08.307Z,-4.05
2022-12-18T22:35:16.032Z,-4.11
2022-12-18T22:40:26.895Z,-4.05
2022-12-18T22:45:31.954Z,-4.12
2022-12-18T22:50:38.940Z,-4.26
2022-12-18T22:55:46.486Z,-4.35
2022-12-18T23:00:51.674Z,-4.26
2022-12-18T23:05:56.610Z,-4.29
2022-12-18T23:11:04.620Z,-4.30
2022-12-18T23:16:11.046Z,-4.34
2022-12-18T23:21:17.730Z,-4.42
2022-12-18T23:26:28.161Z,-4.41
2022-12-18T23:31:34.974Z,-4.46
2022-12-18T23:36:46.006Z,-4.48
2022-12-18T23:41:54.636Z,-4.51
2022-12-18T23:46:59.510Z,-4.48
2022-12-18T23:52:04.406Z,-4.55
2022-12-18T23:57:11.957Z,-4.54
